CST,Max TemperatureF,Mean TemperatureF,Min TemperatureF,Max Dew PointF,MeanDew PointF,Min DewpointF,Max Humidity, Mean Humidity, Min Humidity, Max Sea Level PressureIn, Mean Sea Level PressureIn, Min Sea Level PressureIn, Max VisibilityMiles, Mean VisibilityMiles, Min VisibilityMiles, Max Wind SpeedMPH, Mean Wind SpeedMPH, Max Gust SpeedMPH,PrecipitationIn, CloudCover, Events, WindDirDegrees
2013-2-1,58,37,15,25,19,11,92,58,24,30.32,30.17,30.00,10,10,10,21,6,25,0.00,0,,190
2013-2-2,56,42,27,28,22,19,78,52,26,30.36,30.28,30.18,10,10,10,20,7,24,0.00,0,,275
2013-2-3,64,43,21,26,21,15,77,48,18,30.27,30.02,29.75,10,10,10,31,12,39,0.00,0,,214
2013-2-4,60,45,30,25,20,18,56,39,22,29.98,29.89,29.75,10,10,10,21,8,25,0.00,0,,341
2013-2-5,64,44,24,22,19,15,68,44,19,30.03,29.95,29.88,10,10,10,24,8,30,0.00,0,,100
2013-2-6,72,51,29,38,26,18,92,54,15,29.94,29.79,29.61,10,10,6,30,12,37,0.00,2,,202
2013-2-7,56,43,30,36,25,20,65,49,32,30.19,30.02,29.73,10,10,10,29,16,36,0.00,1,,351
2013-2-8,57,40,22,24,19,15,74,48,22,30.22,30.11,29.94,10,10,10,24,12,31,0.00,0,,185
2013-2-9,62,45,28,37,21,12,53,37,20,29.94,29.64,29.37,10,10,10,31,17,41,0.00,2,,183
2013-2-10,50,39,27,27,18,11,85,55,24,30.07,29.77,29.47,10,10,10,30,14,38,0.00,0,,316
2013-2-11,43,32,20,21,15,12,73,52,30,30.22,30.12,30.05,10,10,10,14,7,16,0.00,2,,60
2013-2-12,38,32,25,31,29,18,100,76,52,30.08,30.04,30.00,10,4,1,15,7,18,0.39,7,Snow,37
2013-2-13,42,32,22,30,21,12,78,63,48,30.08,30.02,29.94,10,10,10,16,7,18,0.00,0,,252
2013-2-14,48,39,29,30,26,19,78,62,45,30.33,30.14,30.02,10,10,10,29,11,37,0.00,4,,360
2013-2-15,45,36,26,25,21,17,75,57,39,30.41,30.34,30.24,10,10,10,17,6,22,0.00,5,,327
2013-2-16,65,43,20,24,19,13,81,47,13,30.40,30.17,29.99,10,10,10,22,7,26,0.00,0,,244
2013-2-17,71,48,25,24,19,14,75,44,12,29.97,29.73,29.46,10,10,10,23,7,28,0.00,0,,221
2013-2-18,52,40,27,23,15,8,61,39,17,30.14,29.88,29.46,10,10,10,32,16,41,0.00,1,,339
2013-2-19,55,38,20,21,17,11,73,50,26,30.22,30.10,29.95,10,10,10,24,11,31,0.00,0,,154
2013-2-20,42,37,32,37,33,21,100,73,45,29.95,29.83,29.72,10,7,2,30,17,38,0.18,8,Rain-Snow-Thunderstorm,144
2013-2-21,32,22,11,29,21,8,92,82,71,30.05,29.74,29.61,10,5,0,22,12,26,0.34,7,Fog-Snow,24
2013-2-22,36,19,2,22,12,1,92,74,56,30.14,30.09,30.04,10,10,9,9,6,12,0.00,2,Snow,235
2013-2-23,38,30,21,32,27,18,92,84,75,30.05,29.88,29.68,10,9,1,16,8,20,T,5,Snow,188
2013-2-24,35,30,25,29,27,21,92,84,75,29.90,29.76,29.63,10,9,1,31,16,38,0.01,6,Snow,347
2013-2-25,35,31,27,28,26,22,92,81,70,29.93,29.87,29.80,10,4,1,39,25,49,0.33,7,Snow,360
2013-2-26,38,29,19,31,24,16,84,72,59,29.94,29.87,29.79,10,10,10,18,7,22,0.00,2,,267
2013-2-27,48,38,28,29,23,17,82,57,31,30.26,30.16,29.97,10,10,10,30,17,37,0.00,2,,336
2013-2-28,52,40,28,23,18,13,69,45,21,30.32,30.23,30.17,10,10,10,23,8,28,0.00,3,,323